Flight Track Log - Related Links

Times and Time Zones

All times are in EDT time to prevent confusion due to time zone crossing. See the N24BK flight status page for this flight to view local times or setup timezone preferences in your user account.

Time Position Orientation Groundspeed Altitude Reporting Facility
EDT Latitude Longitude Course Direction KTS MPH feet Rate Location/Type
Thu 05:22:35 PM 32.8172 -80.7939 249° West 141 162 6,400  Level Jacksonville Center
Thu 05:23:35 PM 32.8033 -80.8364 249° West 146 168 6,500  Climbing Jacksonville Center
Thu 05:24:35 PM 32.7872 -80.8811 247° West 151 174 6,400 -50 Descending Jacksonville Center
Thu 05:25:35 PM 32.7733 -80.9211 248° West 151 174 6,400  Level Jacksonville Center
Thu 05:26:35 PM 32.7594 -80.9633 249° West 151 174 6,400 50 Level Jacksonville Center
Thu 05:27:35 PM 32.7433 -81.0056 246° West 151 174 6,500  Climbing Jacksonville Center
Thu 05:28:35 PM 32.7272 -81.0503 247° West 151 174 6,400 -50 Descending Jacksonville Center
Thu 05:29:35 PM 32.7133 -81.0928 249° West 151 174 6,400 50 Level Jacksonville Center
Thu 05:30:35 PM 32.6992 -81.1375 249° West 151 174 6,500  Climbing Jacksonville Center
Thu 05:31:35 PM 32.6831 -81.1822 247° West 158 182 6,400 -50 Descending Jacksonville Center
Thu 05:32:35 PM 32.6692 -81.2244 249° West 152 175 6,400  Level Jacksonville Center
Thu 05:33:35 PM 32.6550 -81.2692 249° West 147 169 6,400  Level Jacksonville Center
Thu 05:34:35 PM 32.6408 -81.3061 246° West 147 169 6,400  Level Jacksonville Center
Thu 05:35:35 PM 32.6228 -81.3558 247° West 147 169 6,400  Level Jacksonville Center
Thu 05:36:35 PM 32.6067 -81.4006 247° West 153 176 6,400  Level Jacksonville Center
Thu 05:37:35 PM 32.5925 -81.4453 249° West 153 176 6,400  Level Jacksonville Center
Thu 05:38:35 PM 32.5803 -81.4822 249° West 153 176 6,400  Level Jacksonville Center
Thu 05:39:35 PM 32.5642 -81.5244 246° West 153 176 6,400  Level Jacksonville Center
Thu 05:40:35 PM 32.5481 -81.5742 249° West 148 170 6,400  Level Jacksonville Center
Thu 05:41:35 PM 32.5358 -81.6111 249° West 148 170 6,400  Level Jacksonville Center
Thu 05:42:35 PM 32.5217 -81.6581 250° West 148 170 6,400 50 Level Jacksonville Center
Thu 05:43:35 PM 32.5053 -81.7028 247° West 153 176 6,500 100 Climbing Jacksonville Center

Login

Don't have an account? Register now (free) for customized features, flight alerts, and more!